sensor_id;sensor_type;location;lat;lon;timestamp;temperature;humidity
46364;DHT22;32071;49.036;9.344;2023-02-02T00:01:58;5.70;99.90
46364;DHT22;32071;49.036;9.344;2023-02-02T00:04:29;5.70;99.90
46364;DHT22;32071;49.036;9.344;2023-02-02T00:06:55;5.70;99.90
46364;DHT22;32071;49.036;9.344;2023-02-02T00:09:26;5.70;99.90
46364;DHT22;32071;49.036;9.344;2023-02-02T00:11:53;5.70;99.90
46364;DHT22;32071;49.036;9.344;2023-02-02T00:14:19;5.70;99.90
46364;DHT22;32071;49.036;9.344;2023-02-02T00:16:49;5.70;99.90
46364;DHT22;32071;49.036;9.344;2023-02-02T00:19:24;5.60;99.90
46364;DHT22;32071;49.036;9.344;2023-02-02T00:21:56;5.60;99.90
46364;DHT22;32071;49.036;9.344;2023-02-02T00:24:22;5.60;99.90
46364;DHT22;32071;49.036;9.344;2023-02-02T00:26:51;5.70;99.90
46364;DHT22;32071;49.036;9.344;2023-02-02T00:29:20;5.70;99.90
46364;DHT22;32071;49.036;9.344;2023-02-02T00:31:46;5.70;99.90
46364;DHT22;32071;49.036;9.344;2023-02-02T00:34:13;5.70;99.90
46364;DHT22;32071;49.036;9.344;2023-02-02T00:36:39;5.80;99.90
46364;DHT22;32071;49.036;9.344;2023-02-02T00:39:05;5.80;99.90
46364;DHT22;32071;49.036;9.344;2023-02-02T00:41:30;5.80;99.90
46364;DHT22;32071;49.036;9.344;2023-02-02T00:43:56;5.80;99.90
46364;DHT22;32071;49.036;9.344;2023-02-02T00:46:40;5.80;99.90
46364;DHT22;32071;49.036;9.344;2023-02-02T00:49:06;5.80;99.90
46364;DHT22;32071;49.036;9.344;2023-02-02T00:51:34;5.80;99.90
46364;DHT22;32071;49.036;9.344;2023-02-02T00:53:59;5.80;99.90
46364;DHT22;32071;49.036;9.344;2023-02-02T00:56:25;5.80;99.90
46364;DHT22;32071;49.036;9.344;2023-02-02T00:58:50;5.80;99.90
46364;DHT22;32071;49.036;9.344;2023-02-02T01:01:17;5.90;99.90
46364;DHT22;32071;49.036;9.344;2023-02-02T01:03:45;5.80;99.90
46364;DHT22;32071;49.036;9.344;2023-02-02T01:06:11;5.90;99.90
46364;DHT22;32071;49.036;9.344;2023-02-02T01:08:37;5.90;99.90
46364;DHT22;32071;49.036;9.344;2023-02-02T01:11:03;5.90;99.90
46364;DHT22;32071;49.036;9.344;2023-02-02T01:13:28;5.90;99.90
46364;DHT22;32071;49.036;9.344;2023-02-02T01:15:55;5.90;99.90
46364;DHT22;32071;49.036;9.344;2023-02-02T01:18:21;5.80;99.90
46364;DHT22;32071;49.036;9.344;2023-02-02T01:20:46;5.70;99.90
46364;DHT22;32071;49.036;9.344;2023-02-02T01:23:12;5.70;99.90
46364;DHT22;32071;49.036;9.344;2023-02-02T01:25:37;5.70;99.90
46364;DHT22;32071;49.036;9.344;2023-02-02T01:28:04;5.70;99.90
46364;DHT22;32071;49.036;9.344;2023-02-02T01:30:30;5.70;99.90
46364;DHT22;32071;49.036;9.344;2023-02-02T01:32:55;5.70;99.90
46364;DHT22;32071;49.036;9.344;2023-02-02T01:35:21;5.60;99.90
46364;DHT22;32071;49.036;9.344;2023-02-02T01:37:46;5.60;99.90
46364;DHT22;32071;49.036;9.344;2023-02-02T01:40:12;5.60;99.90
46364;DHT22;32071;49.036;9.344;2023-02-02T01:42:38;5.60;99.90
46364;DHT22;32071;49.036;9.344;2023-02-02T01:45:17;5.60;99.90
46364;DHT22;32071;49.036;9.344;2023-02-02T01:47:53;5.50;99.90
46364;DHT22;32071;49.036;9.344;2023-02-02T01:50:23;5.50;99.90
46364;DHT22;32071;49.036;9.344;2023-02-02T01:52:50;5.50;99.90
46364;DHT22;32071;49.036;9.344;2023-02-02T01:55:19;5.50;99.90
46364;DHT22;32071;49.036;9.344;2023-02-02T01:57:59;5.60;99.90
46364;DHT22;32071;49.036;9.344;2023-02-02T02:00:25;5.50;99.90
46364;DHT22;32071;49.036;9.344;2023-02-02T02:02:59;5.50;99.90
46364;DHT22;32071;49.036;9.344;2023-02-02T02:05:34;5.50;99.90
46364;DHT22;32071;49.036;9.344;2023-02-02T02:10:48;5.50;99.90
46364;DHT22;32071;49.036;9.344;2023-02-02T02:13:14;5.60;99.90
46364;DHT22;32071;49.036;9.344;2023-02-02T02:15:48;5.60;99.90
46364;DHT22;32071;49.036;9.344;2023-02-02T02:18:43;5.60;99.90
46364;DHT22;32071;49.036;9.344;2023-02-02T02:21:43;5.60;99.90
46364;DHT22;32071;49.036;9.344;2023-02-02T02:32:55;5.80;99.90
46364;DHT22;32071;49.036;9.344;2023-02-02T02:38:59;5.80;99.90
46364;DHT22;32071;49.036;9.344;2023-02-02T02:41:09;5.80;99.90
46364;DHT22;32071;49.036;9.344;2023-02-02T02:43:45;5.80;99.90
46364;DHT22;32071;49.036;9.344;2023-02-02T02:46:13;5.80;99.90
46364;DHT22;32071;49.036;9.344;2023-02-02T02:48:38;5.80;99.90
46364;DHT22;32071;49.036;9.344;2023-02-02T02:51:33;5.70;99.90
46364;DHT22;32071;49.036;9.344;2023-02-02T02:53:54;5.70;99.90
46364;DHT22;32071;49.036;9.344;2023-02-02T02:56:32;5.60;99.90
46364;DHT22;32071;49.036;9.344;2023-02-02T02:59:23;5.60;99.90
46364;DHT22;32071;49.036;9.344;2023-02-02T03:02:13;5.60;99.90
46364;DHT22;32071;49.036;9.344;2023-02-02T03:07:36;5.60;99.90
46364;DHT22;32071;49.036;9.344;2023-02-02T03:10:05;5.70;99.90
46364;DHT22;32071;49.036;9.344;2023-02-02T03:12:31;5.70;99.90
46364;DHT22;32071;49.036;9.344;2023-02-02T03:14:57;5.70;99.90
46364;DHT22;32071;49.036;9.344;2023-02-02T03:17:23;5.70;99.90
46364;DHT22;32071;49.036;9.344;2023-02-02T03:19:51;5.70;99.90
46364;DHT22;32071;49.036;9.344;2023-02-02T03:22:16;5.70;99.90
46364;DHT22;32071;49.036;9.344;2023-02-02T03:24:42;5.70;99.90
46364;DHT22;32071;49.036;9.344;2023-02-02T03:27:07;5.80;99.90
46364;DHT22;32071;49.036;9.344;2023-02-02T03:29:33;5.80;99.90
46364;DHT22;32071;49.036;9.344;2023-02-02T03:31:58;5.80;99.90
46364;DHT22;32071;49.036;9.344;2023-02-02T03:34:24;5.80;99.90
46364;DHT22;32071;49.036;9.344;2023-02-02T03:36:49;5.90;99.90
46364;DHT22;32071;49.036;9.344;2023-02-02T03:39:15;5.90;99.90
46364;DHT22;32071;49.036;9.344;2023-02-02T03:41:40;5.90;99.90
46364;DHT22;32071;49.036;9.344;2023-02-02T03:44:06;5.90;99.90
46364;DHT22;32071;49.036;9.344;2023-02-02T03:46:31;5.90;99.90
46364;DHT22;32071;49.036;9.344;2023-02-02T03:48:57;5.90;99.90
46364;DHT22;32071;49.036;9.344;2023-02-02T03:51:22;5.90;99.90
46364;DHT22;32071;49.036;9.344;2023-02-02T03:53:48;5.90;99.90
46364;DHT22;32071;49.036;9.344;2023-02-02T03:56:14;5.90;99.90
46364;DHT22;32071;49.036;9.344;2023-02-02T03:58:40;6.00;99.90
46364;DHT22;32071;49.036;9.344;2023-02-02T04:01:09;6.00;99.90
46364;DHT22;32071;49.036;9.344;2023-02-02T04:03:35;6.00;99.90
46364;DHT22;32071;49.036;9.344;2023-02-02T04:06:01;6.00;99.90
46364;DHT22;32071;49.036;9.344;2023-02-02T04:08:27;6.00;99.90
46364;DHT22;32071;49.036;9.344;2023-02-02T04:10:53;6.00;99.90
46364;DHT22;32071;49.036;9.344;2023-02-02T04:13:18;6.00;99.90
46364;DHT22;32071;49.036;9.344;2023-02-02T04:15:44;6.00;99.90
46364;DHT22;32071;49.036;9.344;2023-02-02T04:18:09;6.00;99.90
46364;DHT22;32071;49.036;9.344;2023-02-02T04:20:35;6.00;99.90
46364;DHT22;32071;49.036;9.344;2023-02-02T04:23:00;6.00;99.90
46364;DHT22;32071;49.036;9.344;2023-02-02T04:25:26;6.00;99.90
46364;DHT22;32071;49.036;9.344;2023-02-02T04:27:51;6.00;99.90
46364;DHT22;32071;49.036;9.344;2023-02-02T04:30:17;6.00;99.90
46364;DHT22;32071;49.036;9.344;2023-02-02T04:32:44;6.00;99.90
46364;DHT22;32071;49.036;9.344;2023-02-02T04:35:10;6.00;99.90
46364;DHT22;32071;49.036;9.344;2023-02-02T04:37:35;6.00;99.90
46364;DHT22;32071;49.036;9.344;2023-02-02T04:40:01;6.10;99.90
46364;DHT22;32071;49.036;9.344;2023-02-02T04:42:26;6.10;99.90
46364;DHT22;32071;49.036;9.344;2023-02-02T04:44:52;6.00;99.90
46364;DHT22;32071;49.036;9.344;2023-02-02T04:47:17;6.10;99.90
46364;DHT22;32071;49.036;9.344;2023-02-02T04:49:43;6.00;99.90
46364;DHT22;32071;49.036;9.344;2023-02-02T04:52:11;6.10;99.90
46364;DHT22;32071;49.036;9.344;2023-02-02T04:54:37;6.10;99.90
46364;DHT22;32071;49.036;9.344;2023-02-02T04:57:02;6.10;99.90
46364;DHT22;32071;49.036;9.344;2023-02-02T04:59:28;6.10;99.90
46364;DHT22;32071;49.036;9.344;2023-02-02T05:01:58;6.10;99.90
46364;DHT22;32071;49.036;9.344;2023-02-02T05:04:23;6.10;99.90
46364;DHT22;32071;49.036;9.344;2023-02-02T05:06:49;6.20;99.90
46364;DHT22;32071;49.036;9.344;2023-02-02T05:09:14;6.10;99.90
46364;DHT22;32071;49.036;9.344;2023-02-02T05:11:40;6.10;99.90
46364;DHT22;32071;49.036;9.344;2023-02-02T05:14:09;6.20;99.90
46364;DHT22;32071;49.036;9.344;2023-02-02T05:16:34;6.10;99.90
46364;DHT22;32071;49.036;9.344;2023-02-02T05:19:00;6.10;99.90
46364;DHT22;32071;49.036;9.344;2023-02-02T05:21:26;6.10;99.90
46364;DHT22;32071;49.036;9.344;2023-02-02T05:23:52;6.10;99.90
46364;DHT22;32071;49.036;9.344;2023-02-02T05:26:21;6.10;99.90
46364;DHT22;32071;49.036;9.344;2023-02-02T05:28:47;6.10;99.90
46364;DHT22;32071;49.036;9.344;2023-02-02T05:31:12;6.10;99.90
46364;DHT22;32071;49.036;9.344;2023-02-02T05:33:38;6.10;99.90
46364;DHT22;32071;49.036;9.344;2023-02-02T05:36:04;6.10;99.90
46364;DHT22;32071;49.036;9.344;2023-02-02T05:38:30;6.10;99.90
46364;DHT22;32071;49.036;9.344;2023-02-02T05:40:56;6.10;99.90
46364;DHT22;32071;49.036;9.344;2023-02-02T05:43:24;6.10;99.90
46364;DHT22;32071;49.036;9.344;2023-02-02T05:45:50;6.10;99.90
46364;DHT22;32071;49.036;9.344;2023-02-02T05:48:16;6.20;99.90
46364;DHT22;32071;49.036;9.344;2023-02-02T05:50:45;6.10;99.90
46364;DHT22;32071;49.036;9.344;2023-02-02T05:53:14;6.10;99.90
46364;DHT22;32071;49.036;9.344;2023-02-02T05:55:40;6.10;99.90
46364;DHT22;32071;49.036;9.344;2023-02-02T05:58:06;6.10;99.90
46364;DHT22;32071;49.036;9.344;2023-02-02T06:00:31;6.10;99.90
46364;DHT22;32071;49.036;9.344;2023-02-02T06:02:57;6.00;99.90
46364;DHT22;32071;49.036;9.344;2023-02-02T06:05:23;6.00;99.90
46364;DHT22;32071;49.036;9.344;2023-02-02T06:07:48;5.90;99.90
46364;DHT22;32071;49.036;9.344;2023-02-02T06:10:14;5.90;99.90
46364;DHT22;32071;49.036;9.344;2023-02-02T06:12:40;5.80;99.90
46364;DHT22;32071;49.036;9.344;2023-02-02T06:15:06;5.90;99.90
46364;DHT22;32071;49.036;9.344;2023-02-02T06:17:32;5.80;99.90
46364;DHT22;32071;49.036;9.344;2023-02-02T06:19:57;5.90;99.90
46364;DHT22;32071;49.036;9.344;2023-02-02T06:22:23;5.80;99.90
46364;DHT22;32071;49.036;9.344;2023-02-02T06:24:48;5.80;99.90
46364;DHT22;32071;49.036;9.344;2023-02-02T06:27:14;5.90;99.90
46364;DHT22;32071;49.036;9.344;2023-02-02T06:29:39;5.90;99.90
46364;DHT22;32071;49.036;9.344;2023-02-02T06:32:05;5.90;99.90
46364;DHT22;32071;49.036;9.344;2023-02-02T06:34:30;5.90;99.90
46364;DHT22;32071;49.036;9.344;2023-02-02T06:36:56;5.90;99.90
46364;DHT22;32071;49.036;9.344;2023-02-02T06:39:21;5.90;99.90
46364;DHT22;32071;49.036;9.344;2023-02-02T06:41:47;5.90;99.90
46364;DHT22;32071;49.036;9.344;2023-02-02T06:44:13;5.90;99.90
46364;DHT22;32071;49.036;9.344;2023-02-02T06:46:40;5.90;99.90
46364;DHT22;32071;49.036;9.344;2023-02-02T06:49:05;6.00;99.90
46364;DHT22;32071;49.036;9.344;2023-02-02T06:51:31;6.00;99.90
46364;DHT22;32071;49.036;9.344;2023-02-02T06:53:56;6.00;99.90
46364;DHT22;32071;49.036;9.344;2023-02-02T06:56:22;6.00;99.90
46364;DHT22;32071;49.036;9.344;2023-02-02T06:58:47;6.00;99.90
46364;DHT22;32071;49.036;9.344;2023-02-02T07:01:13;6.00;99.90
46364;DHT22;32071;49.036;9.344;2023-02-02T07:03:39;6.00;99.90
46364;DHT22;32071;49.036;9.344;2023-02-02T07:06:16;6.00;99.90
46364;DHT22;32071;49.036;9.344;2023-02-02T07:08:43;6.10;99.90
46364;DHT22;32071;49.036;9.344;2023-02-02T07:11:09;6.10;99.90
46364;DHT22;32071;49.036;9.344;2023-02-02T07:13:35;6.20;99.90
46364;DHT22;32071;49.036;9.344;2023-02-02T07:16:04;6.20;99.90
46364;DHT22;32071;49.036;9.344;2023-02-02T07:18:31;6.20;99.90
46364;DHT22;32071;49.036;9.344;2023-02-02T07:21:00;6.20;99.90
46364;DHT22;32071;49.036;9.344;2023-02-02T07:23:28;6.20;99.90
46364;DHT22;32071;49.036;9.344;2023-02-02T07:26:05;6.20;99.90
46364;DHT22;32071;49.036;9.344;2023-02-02T07:28:31;6.20;99.90
46364;DHT22;32071;49.036;9.344;2023-02-02T07:30:57;6.30;99.90
46364;DHT22;32071;49.036;9.344;2023-02-02T07:33:22;6.20;99.90
46364;DHT22;32071;49.036;9.344;2023-02-02T07:35:48;6.20;99.90
46364;DHT22;32071;49.036;9.344;2023-02-02T07:38:13;6.30;99.90
46364;DHT22;32071;49.036;9.344;2023-02-02T07:40:39;6.20;99.90
46364;DHT22;32071;49.036;9.344;2023-02-02T07:43:04;6.20;99.90
46364;DHT22;32071;49.036;9.344;2023-02-02T07:45:30;6.20;99.90
46364;DHT22;32071;49.036;9.344;2023-02-02T07:47:57;6.30;99.90
46364;DHT22;32071;49.036;9.344;2023-02-02T07:50:23;6.30;99.90
46364;DHT22;32071;49.036;9.344;2023-02-02T07:52:50;6.30;99.90
46364;DHT22;32071;49.036;9.344;2023-02-02T07:55:15;6.20;99.90
46364;DHT22;32071;49.036;9.344;2023-02-02T07:57:41;6.20;99.90
46364;DHT22;32071;49.036;9.344;2023-02-02T08:00:06;6.20;99.90
46364;DHT22;32071;49.036;9.344;2023-02-02T08:02:33;6.20;99.90
46364;DHT22;32071;49.036;9.344;2023-02-02T08:04:59;6.30;99.90
46364;DHT22;32071;49.036;9.344;2023-02-02T08:07:25;6.20;99.90
46364;DHT22;32071;49.036;9.344;2023-02-02T08:09:50;6.20;99.90
46364;DHT22;32071;49.036;9.344;2023-02-02T08:12:17;6.30;99.90
46364;DHT22;32071;49.036;9.344;2023-02-02T08:14:42;6.20;99.90
46364;DHT22;32071;49.036;9.344;2023-02-02T08:17:08;6.30;99.90
46364;DHT22;32071;49.036;9.344;2023-02-02T08:19:33;6.30;99.90
46364;DHT22;32071;49.036;9.344;2023-02-02T08:21:59;6.30;99.90
46364;DHT22;32071;49.036;9.344;2023-02-02T08:24:24;6.30;99.90
46364;DHT22;32071;49.036;9.344;2023-02-02T08:26:50;6.30;99.90
46364;DHT22;32071;49.036;9.344;2023-02-02T08:29:15;6.40;99.90
46364;DHT22;32071;49.036;9.344;2023-02-02T08:31:43;6.40;99.90
46364;DHT22;32071;49.036;9.344;2023-02-02T08:34:09;6.40;99.90
46364;DHT22;32071;49.036;9.344;2023-02-02T08:36:35;6.40;99.90
46364;DHT22;32071;49.036;9.344;2023-02-02T08:39:03;6.40;99.90
46364;DHT22;32071;49.036;9.344;2023-02-02T08:41:29;6.40;99.90
46364;DHT22;32071;49.036;9.344;2023-02-02T08:43:55;6.40;99.90
46364;DHT22;32071;49.036;9.344;2023-02-02T08:46:21;6.40;99.90
46364;DHT22;32071;49.036;9.344;2023-02-02T08:48:47;6.30;99.90
46364;DHT22;32071;49.036;9.344;2023-02-02T08:51:15;6.20;99.90
46364;DHT22;32071;49.036;9.344;2023-02-02T08:53:42;6.10;99.90
46364;DHT22;32071;49.036;9.344;2023-02-02T08:56:14;6.00;99.90
46364;DHT22;32071;49.036;9.344;2023-02-02T08:58:47;5.90;99.90
46364;DHT22;32071;49.036;9.344;2023-02-02T09:01:18;5.90;99.90
46364;DHT22;32071;49.036;9.344;2023-02-02T09:03:44;5.90;99.90
46364;DHT22;32071;49.036;9.344;2023-02-02T09:06:16;6.00;99.90
46364;DHT22;32071;49.036;9.344;2023-02-02T09:08:42;6.00;99.90
46364;DHT22;32071;49.036;9.344;2023-02-02T09:11:09;6.10;99.90
46364;DHT22;32071;49.036;9.344;2023-02-02T09:13:36;6.10;99.90
46364;DHT22;32071;49.036;9.344;2023-02-02T09:16:03;6.10;99.90
46364;DHT22;32071;49.036;9.344;2023-02-02T09:18:29;6.10;99.90
46364;DHT22;32071;49.036;9.344;2023-02-02T09:20:59;6.20;99.90
46364;DHT22;32071;49.036;9.344;2023-02-02T09:23:25;6.20;99.90
46364;DHT22;32071;49.036;9.344;2023-02-02T09:25:51;6.20;99.90
46364;DHT22;32071;49.036;9.344;2023-02-02T09:28:16;6.20;99.90
46364;DHT22;32071;49.036;9.344;2023-02-02T09:30:42;6.30;99.90
46364;DHT22;32071;49.036;9.344;2023-02-02T09:33:08;6.30;99.90
46364;DHT22;32071;49.036;9.344;2023-02-02T09:35:33;6.30;99.90
46364;DHT22;32071;49.036;9.344;2023-02-02T09:37:59;6.30;99.90
46364;DHT22;32071;49.036;9.344;2023-02-02T09:40:24;6.40;99.90
46364;DHT22;32071;49.036;9.344;2023-02-02T09:43:25;6.40;99.90
46364;DHT22;32071;49.036;9.344;2023-02-02T09:48:55;6.40;99.90
46364;DHT22;32071;49.036;9.344;2023-02-02T09:51:22;6.40;99.90
46364;DHT22;32071;49.036;9.344;2023-02-02T09:53:55;6.40;99.90
46364;DHT22;32071;49.036;9.344;2023-02-02T09:56:37;6.40;99.90
46364;DHT22;32071;49.036;9.344;2023-02-02T09:59:09;6.50;99.90
46364;DHT22;32071;49.036;9.344;2023-02-02T10:01:39;6.40;99.90
46364;DHT22;32071;49.036;9.344;2023-02-02T10:04:34;6.50;99.90
46364;DHT22;32071;49.036;9.344;2023-02-02T10:07:06;6.60;99.90
46364;DHT22;32071;49.036;9.344;2023-02-02T10:10:08;6.60;99.90
46364;DHT22;32071;49.036;9.344;2023-02-02T10:12:45;6.60;99.90
46364;DHT22;32071;49.036;9.344;2023-02-02T10:15:20;6.70;99.90
46364;DHT22;32071;49.036;9.344;2023-02-02T10:17:58;6.80;99.90
46364;DHT22;32071;49.036;9.344;2023-02-02T10:23:40;6.90;99.90
46364;DHT22;32071;49.036;9.344;2023-02-02T10:31:16;7.00;99.90
46364;DHT22;32071;49.036;9.344;2023-02-02T10:33:54;7.00;99.90
46364;DHT22;32071;49.036;9.344;2023-02-02T10:36:34;7.00;99.90
46364;DHT22;32071;49.036;9.344;2023-02-02T10:39:29;7.10;99.90
46364;DHT22;32071;49.036;9.344;2023-02-02T10:44:41;7.30;99.90
46364;DHT22;32071;49.036;9.344;2023-02-02T10:47:14;7.30;99.90
46364;DHT22;32071;49.036;9.344;2023-02-02T10:49:41;7.30;99.90
46364;DHT22;32071;49.036;9.344;2023-02-02T10:54:52;7.30;99.90
46364;DHT22;32071;49.036;9.344;2023-02-02T10:57:29;7.30;99.90
46364;DHT22;32071;49.036;9.344;2023-02-02T11:02:48;7.20;99.90
46364;DHT22;32071;49.036;9.344;2023-02-02T11:05:22;7.20;99.90
46364;DHT22;32071;49.036;9.344;2023-02-02T11:08:16;7.10;99.90
46364;DHT22;32071;49.036;9.344;2023-02-02T11:10:47;7.10;99.90
46364;DHT22;32071;49.036;9.344;2023-02-02T11:13:20;7.00;99.90
46364;DHT22;32071;49.036;9.344;2023-02-02T11:15:47;6.90;99.90
46364;DHT22;32071;49.036;9.344;2023-02-02T11:18:33;6.90;99.90
46364;DHT22;32071;49.036;9.344;2023-02-02T11:20:59;6.80;99.90
46364;DHT22;32071;49.036;9.344;2023-02-02T11:23:26;6.80;99.90
46364;DHT22;32071;49.036;9.344;2023-02-02T11:26:00;6.80;99.90
46364;DHT22;32071;49.036;9.344;2023-02-02T11:28:27;6.70;99.90
46364;DHT22;32071;49.036;9.344;2023-02-02T11:30:55;6.70;99.90
46364;DHT22;32071;49.036;9.344;2023-02-02T11:33:31;6.70;99.90
46364;DHT22;32071;49.036;9.344;2023-02-02T11:36:06;6.60;99.90
46364;DHT22;32071;49.036;9.344;2023-02-02T11:38:42;6.60;99.90
46364;DHT22;32071;49.036;9.344;2023-02-02T11:41:08;6.50;99.90
46364;DHT22;32071;49.036;9.344;2023-02-02T11:43:46;6.40;99.90
46364;DHT22;32071;49.036;9.344;2023-02-02T11:46:23;6.40;99.90
46364;DHT22;32071;49.036;9.344;2023-02-02T11:49:01;6.30;99.90
46364;DHT22;32071;49.036;9.344;2023-02-02T11:51:28;6.30;99.90
46364;DHT22;32071;49.036;9.344;2023-02-02T11:54:15;6.30;99.90
46364;DHT22;32071;49.036;9.344;2023-02-02T11:56:47;6.30;99.90
46364;DHT22;32071;49.036;9.344;2023-02-02T11:59:30;6.20;99.90
46364;DHT22;32071;49.036;9.344;2023-02-02T12:04:37;6.20;99.90
46364;DHT22;32071;49.036;9.344;2023-02-02T12:07:23;6.20;99.90
46364;DHT22;32071;49.036;9.344;2023-02-02T12:09:50;6.10;99.90
46364;DHT22;32071;49.036;9.344;2023-02-02T12:15:19;6.10;99.90
46364;DHT22;32071;49.036;9.344;2023-02-02T12:17:48;6.00;99.90
46364;DHT22;32071;49.036;9.344;2023-02-02T12:20:36;6.00;99.90
46364;DHT22;32071;49.036;9.344;2023-02-02T12:42:19;6.00;99.90
46364;DHT22;32071;49.036;9.344;2023-02-02T13:04:40;6.00;99.90
46364;DHT22;32071;49.036;9.344;2023-02-02T13:07:24;6.10;99.90
46364;DHT22;32071;49.036;9.344;2023-02-02T13:10:00;6.00;99.90
46364;DHT22;32071;49.036;9.344;2023-02-02T13:12:27;6.00;99.90
46364;DHT22;32071;49.036;9.344;2023-02-02T13:15:03;6.00;99.90
46364;DHT22;32071;49.036;9.344;2023-02-02T13:17:50;6.00;99.90
46364;DHT22;32071;49.036;9.344;2023-02-02T13:22:58;6.10;99.90
46364;DHT22;32071;49.036;9.344;2023-02-02T13:25:28;6.10;99.90
46364;DHT22;32071;49.036;9.344;2023-02-02T13:27:57;6.10;99.90
46364;DHT22;32071;49.036;9.344;2023-02-02T13:32:57;6.10;99.90
46364;DHT22;32071;49.036;9.344;2023-02-02T13:35:33;6.20;99.90
46364;DHT22;32071;49.036;9.344;2023-02-02T13:38:19;6.20;99.90
46364;DHT22;32071;49.036;9.344;2023-02-02T13:40:46;6.20;99.90
46364;DHT22;32071;49.036;9.344;2023-02-02T13:43:52;6.30;99.90
46364;DHT22;32071;49.036;9.344;2023-02-02T13:52:01;6.30;99.90
46364;DHT22;32071;49.036;9.344;2023-02-02T13:54:38;6.30;99.90
46364;DHT22;32071;49.036;9.344;2023-02-02T14:00:12;6.40;99.90
46364;DHT22;32071;49.036;9.344;2023-02-02T14:08:39;6.40;99.90
46364;DHT22;32071;49.036;9.344;2023-02-02T14:11:06;6.40;99.90
46364;DHT22;32071;49.036;9.344;2023-02-02T14:13:51;6.50;99.90
46364;DHT22;32071;49.036;9.344;2023-02-02T14:19:05;6.50;99.90
46364;DHT22;32071;49.036;9.344;2023-02-02T14:24:00;6.50;99.90
46364;DHT22;32071;49.036;9.344;2023-02-02T14:26:45;6.50;99.90
46364;DHT22;32071;49.036;9.344;2023-02-02T14:34:42;6.50;99.90
46364;DHT22;32071;49.036;9.344;2023-02-02T14:45:31;6.60;99.90
46364;DHT22;32071;49.036;9.344;2023-02-02T14:48:14;6.60;99.90
46364;DHT22;32071;49.036;9.344;2023-02-02T14:50:43;6.60;99.90
46364;DHT22;32071;49.036;9.344;2023-02-02T14:56:05;6.60;99.90
46364;DHT22;32071;49.036;9.344;2023-02-02T15:19:43;6.60;99.90
46364;DHT22;32071;49.036;9.344;2023-02-02T15:24:57;6.70;99.90
46364;DHT22;32071;49.036;9.344;2023-02-02T15:27:25;6.70;99.90
46364;DHT22;32071;49.036;9.344;2023-02-02T15:29:54;6.70;99.90
46364;DHT22;32071;49.036;9.344;2023-02-02T15:32:23;6.70;99.90
46364;DHT22;32071;49.036;9.344;2023-02-02T15:34:54;6.70;99.90
46364;DHT22;32071;49.036;9.344;2023-02-02T15:37:26;6.70;99.90
46364;DHT22;32071;49.036;9.344;2023-02-02T15:39:58;6.70;99.90
46364;DHT22;32071;49.036;9.344;2023-02-02T15:42:46;6.80;99.90
46364;DHT22;32071;49.036;9.344;2023-02-02T15:50:48;6.80;99.90
46364;DHT22;32071;49.036;9.344;2023-02-02T15:53:21;6.80;99.90
46364;DHT22;32071;49.036;9.344;2023-02-02T15:55:47;6.80;99.90
46364;DHT22;32071;49.036;9.344;2023-02-02T15:58:22;6.80;99.90
46364;DHT22;32071;49.036;9.344;2023-02-02T16:01:04;6.80;99.90
46364;DHT22;32071;49.036;9.344;2023-02-02T16:03:45;6.80;99.90
46364;DHT22;32071;49.036;9.344;2023-02-02T16:06:13;6.80;99.90
46364;DHT22;32071;49.036;9.344;2023-02-02T16:08:39;6.80;99.90
46364;DHT22;32071;49.036;9.344;2023-02-02T16:11:20;6.80;99.90
46364;DHT22;32071;49.036;9.344;2023-02-02T16:16:28;6.80;99.90
46364;DHT22;32071;49.036;9.344;2023-02-02T16:21:31;6.80;99.90
46364;DHT22;32071;49.036;9.344;2023-02-02T16:23:57;6.80;99.90
46364;DHT22;32071;49.036;9.344;2023-02-02T16:26:28;6.80;99.90
46364;DHT22;32071;49.036;9.344;2023-02-02T16:28:54;6.80;99.90
46364;DHT22;32071;49.036;9.344;2023-02-02T16:31:20;6.80;99.90
46364;DHT22;32071;49.036;9.344;2023-02-02T16:33:46;6.80;99.90
46364;DHT22;32071;49.036;9.344;2023-02-02T16:36:17;6.80;99.90
46364;DHT22;32071;49.036;9.344;2023-02-02T16:38:43;6.80;99.90
46364;DHT22;32071;49.036;9.344;2023-02-02T16:41:11;6.80;99.90
46364;DHT22;32071;49.036;9.344;2023-02-02T16:43:41;6.80;99.90
46364;DHT22;32071;49.036;9.344;2023-02-02T16:46:11;6.80;99.90
46364;DHT22;32071;49.036;9.344;2023-02-02T16:48:54;6.80;99.90
46364;DHT22;32071;49.036;9.344;2023-02-02T16:51:23;6.80;99.90
46364;DHT22;32071;49.036;9.344;2023-02-02T16:58:53;6.90;99.90
46364;DHT22;32071;49.036;9.344;2023-02-02T17:01:34;6.90;99.90
46364;DHT22;32071;49.036;9.344;2023-02-02T17:04:00;6.90;99.90
46364;DHT22;32071;49.036;9.344;2023-02-02T17:06:29;6.90;99.90
46364;DHT22;32071;49.036;9.344;2023-02-02T17:08:55;6.90;99.90
46364;DHT22;32071;49.036;9.344;2023-02-02T17:11:27;6.90;99.90
46364;DHT22;32071;49.036;9.344;2023-02-02T17:13:55;6.90;99.90
46364;DHT22;32071;49.036;9.344;2023-02-02T17:16:22;6.90;99.90
46364;DHT22;32071;49.036;9.344;2023-02-02T17:18:49;6.90;99.90
46364;DHT22;32071;49.036;9.344;2023-02-02T17:21:20;6.90;99.90
46364;DHT22;32071;49.036;9.344;2023-02-02T17:23:48;6.90;99.90
46364;DHT22;32071;49.036;9.344;2023-02-02T17:26:17;6.90;99.90
46364;DHT22;32071;49.036;9.344;2023-02-02T17:28:43;6.90;99.90
46364;DHT22;32071;49.036;9.344;2023-02-02T17:31:11;6.90;99.90
46364;DHT22;32071;49.036;9.344;2023-02-02T17:33:37;6.90;99.90
46364;DHT22;32071;49.036;9.344;2023-02-02T17:36:04;6.90;99.90
46364;DHT22;32071;49.036;9.344;2023-02-02T17:38:30;6.90;99.90
46364;DHT22;32071;49.036;9.344;2023-02-02T17:41:00;6.80;99.90
46364;DHT22;32071;49.036;9.344;2023-02-02T17:43:27;6.80;99.90
46364;DHT22;32071;49.036;9.344;2023-02-02T17:45:52;6.80;99.90
46364;DHT22;32071;49.036;9.344;2023-02-02T17:48:18;6.70;99.90
46364;DHT22;32071;49.036;9.344;2023-02-02T17:50:45;6.70;99.90
46364;DHT22;32071;49.036;9.344;2023-02-02T17:53:12;6.60;99.90
46364;DHT22;32071;49.036;9.344;2023-02-02T17:55:40;6.70;99.90
46364;DHT22;32071;49.036;9.344;2023-02-02T17:58:07;6.60;99.90
46364;DHT22;32071;49.036;9.344;2023-02-02T18:00:33;6.60;99.90
46364;DHT22;32071;49.036;9.344;2023-02-02T18:05:36;6.60;99.90
46364;DHT22;32071;49.036;9.344;2023-02-02T18:08:02;6.60;99.90
46364;DHT22;32071;49.036;9.344;2023-02-02T18:10:27;6.50;99.90
46364;DHT22;32071;49.036;9.344;2023-02-02T18:12:54;6.50;99.90
46364;DHT22;32071;49.036;9.344;2023-02-02T18:15:20;6.50;99.90
46364;DHT22;32071;49.036;9.344;2023-02-02T18:17:45;6.50;99.90
46364;DHT22;32071;49.036;9.344;2023-02-02T18:20:13;6.50;99.90
46364;DHT22;32071;49.036;9.344;2023-02-02T18:22:39;6.50;99.90
46364;DHT22;32071;49.036;9.344;2023-02-02T18:25:09;6.50;99.90
46364;DHT22;32071;49.036;9.344;2023-02-02T18:27:35;6.40;99.90
46364;DHT22;32071;49.036;9.344;2023-02-02T18:30:00;6.40;99.90
46364;DHT22;32071;49.036;9.344;2023-02-02T18:32:26;6.30;99.90
46364;DHT22;32071;49.036;9.344;2023-02-02T18:34:51;6.30;99.90
46364;DHT22;32071;49.036;9.344;2023-02-02T18:37:23;6.30;99.90
46364;DHT22;32071;49.036;9.344;2023-02-02T18:39:50;6.20;99.90
46364;DHT22;32071;49.036;9.344;2023-02-02T18:42:16;6.20;99.90
46364;DHT22;32071;49.036;9.344;2023-02-02T18:44:41;6.20;99.90